sensor_id;sensor_type;location;lat;lon;timestamp;temperature;humidity
21184;DHT22;18176;49.502;11.754;2024-01-15T00:02:19;-3.90;99.90
21184;DHT22;18176;49.502;11.754;2024-01-15T00:06:40;-4.00;99.90
21184;DHT22;18176;49.502;11.754;2024-01-15T00:11:01;-4.00;99.90
21184;DHT22;18176;49.502;11.754;2024-01-15T00:15:21;-4.00;99.90
21184;DHT22;18176;49.502;11.754;2024-01-15T00:19:45;-4.10;99.90
21184;DHT22;18176;49.502;11.754;2024-01-15T00:24:06;-4.20;99.90
21184;DHT22;18176;49.502;11.754;2024-01-15T00:28:26;-4.20;99.90
21184;DHT22;18176;49.502;11.754;2024-01-15T00:32:47;-4.20;99.90
21184;DHT22;18176;49.502;11.754;2024-01-15T00:37:10;-4.20;99.90
21184;DHT22;18176;49.502;11.754;2024-01-15T00:41:31;-4.10;99.90
21184;DHT22;18176;49.502;11.754;2024-01-15T00:45:51;-4.10;99.90
21184;DHT22;18176;49.502;11.754;2024-01-15T00:50:12;-4.10;99.90
21184;DHT22;18176;49.502;11.754;2024-01-15T00:54:35;-4.00;99.90
21184;DHT22;18176;49.502;11.754;2024-01-15T00:58:57;-4.00;99.90
21184;DHT22;18176;49.502;11.754;2024-01-15T01:03:18;-4.10;99.90
21184;DHT22;18176;49.502;11.754;2024-01-15T01:07:39;-4.00;99.90
21184;DHT22;18176;49.502;11.754;2024-01-15T01:12:02;-4.10;99.90
21184;DHT22;18176;49.502;11.754;2024-01-15T01:16:23;-4.10;99.90
21184;DHT22;18176;49.502;11.754;2024-01-15T01:20:44;-4.00;99.90
21184;DHT22;18176;49.502;11.754;2024-01-15T01:25:06;-4.00;99.90
21184;DHT22;18176;49.502;11.754;2024-01-15T01:29:29;-4.00;99.90
21184;DHT22;18176;49.502;11.754;2024-01-15T01:33:50;-4.10;99.90
21184;DHT22;18176;49.502;11.754;2024-01-15T01:38:10;-4.00;99.90
21184;DHT22;18176;49.502;11.754;2024-01-15T01:42:31;-4.00;99.90
21184;DHT22;18176;49.502;11.754;2024-01-15T01:46:54;-4.00;99.90
21184;DHT22;18176;49.502;11.754;2024-01-15T01:51:16;-4.00;99.90
21184;DHT22;18176;49.502;11.754;2024-01-15T01:55:38;-4.00;99.90
21184;DHT22;18176;49.502;11.754;2024-01-15T01:59:59;-3.90;99.90
21184;DHT22;18176;49.502;11.754;2024-01-15T02:04:31;-3.90;99.90
21184;DHT22;18176;49.502;11.754;2024-01-15T02:08:54;-3.90;99.90
21184;DHT22;18176;49.502;11.754;2024-01-15T02:13:15;-3.90;99.90
21184;DHT22;18176;49.502;11.754;2024-01-15T02:17:58;-3.90;99.90
21184;DHT22;18176;49.502;11.754;2024-01-15T02:22:23;-3.90;99.90
21184;DHT22;18176;49.502;11.754;2024-01-15T02:26:46;-3.90;99.90
21184;DHT22;18176;49.502;11.754;2024-01-15T02:31:07;-3.80;99.90
21184;DHT22;18176;49.502;11.754;2024-01-15T02:35:27;-3.90;99.90
21184;DHT22;18176;49.502;11.754;2024-01-15T02:39:48;-3.80;99.90
21184;DHT22;18176;49.502;11.754;2024-01-15T02:44:11;-3.80;99.90
21184;DHT22;18176;49.502;11.754;2024-01-15T02:48:32;-3.80;99.90
21184;DHT22;18176;49.502;11.754;2024-01-15T02:52:53;-3.70;99.90
21184;DHT22;18176;49.502;11.754;2024-01-15T02:57:13;-3.70;99.90
21184;DHT22;18176;49.502;11.754;2024-01-15T03:01:36;-3.70;99.90
21184;DHT22;18176;49.502;11.754;2024-01-15T03:05:57;-3.70;99.90
21184;DHT22;18176;49.502;11.754;2024-01-15T03:10:18;-3.70;99.90
21184;DHT22;18176;49.502;11.754;2024-01-15T03:14:39;-3.60;99.90
21184;DHT22;18176;49.502;11.754;2024-01-15T03:19:02;-3.60;99.90
21184;DHT22;18176;49.502;11.754;2024-01-15T03:23:22;-3.60;99.90
21184;DHT22;18176;49.502;11.754;2024-01-15T03:27:43;-3.50;99.90
21184;DHT22;18176;49.502;11.754;2024-01-15T03:32:04;-3.50;99.90
21184;DHT22;18176;49.502;11.754;2024-01-15T03:36:27;-3.50;99.90
21184;DHT22;18176;49.502;11.754;2024-01-15T03:40:48;-3.50;99.90
21184;DHT22;18176;49.502;11.754;2024-01-15T03:45:09;-3.50;99.90
21184;DHT22;18176;49.502;11.754;2024-01-15T03:49:29;-3.40;99.90
21184;DHT22;18176;49.502;11.754;2024-01-15T03:53:53;-3.40;99.90
21184;DHT22;18176;49.502;11.754;2024-01-15T03:58:13;-3.30;99.90
21184;DHT22;18176;49.502;11.754;2024-01-15T04:02:34;-3.30;99.90
21184;DHT22;18176;49.502;11.754;2024-01-15T04:06:54;-3.30;99.90
21184;DHT22;18176;49.502;11.754;2024-01-15T04:11:18;-3.20;99.90
21184;DHT22;18176;49.502;11.754;2024-01-15T04:15:39;-3.20;99.90
21184;DHT22;18176;49.502;11.754;2024-01-15T04:20:00;-3.20;99.90
21184;DHT22;18176;49.502;11.754;2024-01-15T04:24:21;-3.10;99.90
21184;DHT22;18176;49.502;11.754;2024-01-15T04:28:44;-3.00;99.90
21184;DHT22;18176;49.502;11.754;2024-01-15T04:33:05;-3.00;99.90
21184;DHT22;18176;49.502;11.754;2024-01-15T04:37:25;-3.00;99.90
21184;DHT22;18176;49.502;11.754;2024-01-15T04:41:46;-2.90;99.90
21184;DHT22;18176;49.502;11.754;2024-01-15T04:46:09;-2.90;99.90
21184;DHT22;18176;49.502;11.754;2024-01-15T04:50:30;-2.90;99.90
21184;DHT22;18176;49.502;11.754;2024-01-15T04:54:50;-2.90;99.90
21184;DHT22;18176;49.502;11.754;2024-01-15T04:59:11;-2.80;99.90
21184;DHT22;18176;49.502;11.754;2024-01-15T05:03:35;-2.80;99.90
21184;DHT22;18176;49.502;11.754;2024-01-15T05:07:56;-2.70;99.90
21184;DHT22;18176;49.502;11.754;2024-01-15T05:12:17;-2.70;99.90
21184;DHT22;18176;49.502;11.754;2024-01-15T05:16:38;-2.70;99.90
21184;DHT22;18176;49.502;11.754;2024-01-15T05:21:02;-2.70;99.90
21184;DHT22;18176;49.502;11.754;2024-01-15T05:25:22;-2.60;99.90
21184;DHT22;18176;49.502;11.754;2024-01-15T05:29:43;-2.60;99.90
21184;DHT22;18176;49.502;11.754;2024-01-15T05:34:04;-2.60;99.90
21184;DHT22;18176;49.502;11.754;2024-01-15T05:38:27;-2.50;99.90
21184;DHT22;18176;49.502;11.754;2024-01-15T05:42:48;-2.50;99.90
21184;DHT22;18176;49.502;11.754;2024-01-15T05:47:09;-2.50;99.90
21184;DHT22;18176;49.502;11.754;2024-01-15T05:51:29;-2.50;99.90
21184;DHT22;18176;49.502;11.754;2024-01-15T05:55:52;-2.50;99.90
21184;DHT22;18176;49.502;11.754;2024-01-15T06:00:15;-2.40;99.90
21184;DHT22;18176;49.502;11.754;2024-01-15T06:04:36;-2.40;99.90
21184;DHT22;18176;49.502;11.754;2024-01-15T06:08:57;-2.30;99.90
21184;DHT22;18176;49.502;11.754;2024-01-15T06:13:25;-2.30;99.90
21184;DHT22;18176;49.502;11.754;2024-01-15T06:17:46;-2.30;99.90
21184;DHT22;18176;49.502;11.754;2024-01-15T06:22:07;-2.30;99.90
21184;DHT22;18176;49.502;11.754;2024-01-15T06:26:27;-2.30;99.90
21184;DHT22;18176;49.502;11.754;2024-01-15T06:30:51;-2.30;99.90
21184;DHT22;18176;49.502;11.754;2024-01-15T06:35:11;-2.20;99.90
21184;DHT22;18176;49.502;11.754;2024-01-15T06:39:32;-2.20;99.90
21184;DHT22;18176;49.502;11.754;2024-01-15T06:43:53;-2.20;99.90
21184;DHT22;18176;49.502;11.754;2024-01-15T06:48:16;-2.30;99.90
21184;DHT22;18176;49.502;11.754;2024-01-15T06:52:37;-2.20;99.90
21184;DHT22;18176;49.502;11.754;2024-01-15T06:56:58;-2.20;99.90
21184;DHT22;18176;49.502;11.754;2024-01-15T07:01:18;-2.20;99.90
21184;DHT22;18176;49.502;11.754;2024-01-15T07:05:42;-2.20;99.90
21184;DHT22;18176;49.502;11.754;2024-01-15T07:10:04;-2.20;99.90
21184;DHT22;18176;49.502;11.754;2024-01-15T07:14:25;-2.10;99.90
21184;DHT22;18176;49.502;11.754;2024-01-15T07:18:46;-2.10;99.90
21184;DHT22;18176;49.502;11.754;2024-01-15T07:23:09;-2.10;99.90
21184;DHT22;18176;49.502;11.754;2024-01-15T07:27:30;-2.10;99.90
21184;DHT22;18176;49.502;11.754;2024-01-15T07:31:51;-2.00;99.90
21184;DHT22;18176;49.502;11.754;2024-01-15T07:36:12;-2.00;99.90
21184;DHT22;18176;49.502;11.754;2024-01-15T07:40:35;-1.90;99.90
21184;DHT22;18176;49.502;11.754;2024-01-15T07:44:56;-1.90;99.90
21184;DHT22;18176;49.502;11.754;2024-01-15T07:49:17;-1.90;99.90
21184;DHT22;18176;49.502;11.754;2024-01-15T07:53:38;-1.90;99.90
21184;DHT22;18176;49.502;11.754;2024-01-15T07:58:01;-1.80;99.90
21184;DHT22;18176;49.502;11.754;2024-01-15T08:02:32;-1.80;99.90
21184;DHT22;18176;49.502;11.754;2024-01-15T08:06:54;-1.80;99.90
21184;DHT22;18176;49.502;11.754;2024-01-15T08:11:15;-1.80;99.90
21184;DHT22;18176;49.502;11.754;2024-01-15T08:15:39;-1.80;99.90
21184;DHT22;18176;49.502;11.754;2024-01-15T08:20:01;-1.80;99.90
21184;DHT22;18176;49.502;11.754;2024-01-15T08:24:24;-1.80;99.90
21184;DHT22;18176;49.502;11.754;2024-01-15T08:28:46;-1.90;99.90
21184;DHT22;18176;49.502;11.754;2024-01-15T08:33:11;-1.80;99.90
21184;DHT22;18176;49.502;11.754;2024-01-15T08:37:38;-1.80;99.90
21184;DHT22;18176;49.502;11.754;2024-01-15T08:41:59;-1.80;99.90
21184;DHT22;18176;49.502;11.754;2024-01-15T08:46:20;-1.70;99.90
21184;DHT22;18176;49.502;11.754;2024-01-15T08:50:44;-1.70;99.90
21184;DHT22;18176;49.502;11.754;2024-01-15T08:55:08;-1.70;99.90
21184;DHT22;18176;49.502;11.754;2024-01-15T08:59:30;-1.60;99.90
21184;DHT22;18176;49.502;11.754;2024-01-15T09:03:51;-1.40;99.90
21184;DHT22;18176;49.502;11.754;2024-01-15T09:08:14;-1.40;99.90
21184;DHT22;18176;49.502;11.754;2024-01-15T09:12:35;-1.40;99.90
21184;DHT22;18176;49.502;11.754;2024-01-15T09:16:56;-1.20;99.90
21184;DHT22;18176;49.502;11.754;2024-01-15T09:21:17;-1.20;99.90
21184;DHT22;18176;49.502;11.754;2024-01-15T09:25:40;-1.20;99.90
21184;DHT22;18176;49.502;11.754;2024-01-15T09:30:01;-1.10;99.90
21184;DHT22;18176;49.502;11.754;2024-01-15T09:34:23;-1.00;99.90
21184;DHT22;18176;49.502;11.754;2024-01-15T09:38:45;-1.00;99.90
21184;DHT22;18176;49.502;11.754;2024-01-15T09:43:10;-1.00;99.90
21184;DHT22;18176;49.502;11.754;2024-01-15T09:47:33;-0.80;99.90
21184;DHT22;18176;49.502;11.754;2024-01-15T09:51:58;-0.80;99.90
21184;DHT22;18176;49.502;11.754;2024-01-15T09:56:28;-0.80;99.90
21184;DHT22;18176;49.502;11.754;2024-01-15T10:00:52;-0.50;99.90
21184;DHT22;18176;49.502;11.754;2024-01-15T10:05:13;-0.50;99.90
21184;DHT22;18176;49.502;11.754;2024-01-15T10:09:35;-0.50;99.90
21184;DHT22;18176;49.502;11.754;2024-01-15T10:13:56;-0.50;99.90
21184;DHT22;18176;49.502;11.754;2024-01-15T10:18:20;-0.50;99.90
21184;DHT22;18176;49.502;11.754;2024-01-15T10:22:41;-0.50;99.90
21184;DHT22;18176;49.502;11.754;2024-01-15T10:27:07;-0.60;99.90
21184;DHT22;18176;49.502;11.754;2024-01-15T10:31:29;-0.70;99.90
21184;DHT22;18176;49.502;11.754;2024-01-15T10:35:54;-0.80;99.90
21184;DHT22;18176;49.502;11.754;2024-01-15T10:40:15;-0.80;99.90
21184;DHT22;18176;49.502;11.754;2024-01-15T10:44:36;-0.80;99.90
21184;DHT22;18176;49.502;11.754;2024-01-15T10:48:57;-0.70;99.90
21184;DHT22;18176;49.502;11.754;2024-01-15T10:53:23;-0.70;99.90
21184;DHT22;18176;49.502;11.754;2024-01-15T10:57:45;-0.60;99.90
21184;DHT22;18176;49.502;11.754;2024-01-15T11:02:09;-0.70;99.90
21184;DHT22;18176;49.502;11.754;2024-01-15T11:06:42;-0.80;99.90
21184;DHT22;18176;49.502;11.754;2024-01-15T11:11:09;-0.70;99.90
21184;DHT22;18176;49.502;11.754;2024-01-15T11:15:32;-0.70;99.90
21184;DHT22;18176;49.502;11.754;2024-01-15T11:19:52;-0.70;99.90
21184;DHT22;18176;49.502;11.754;2024-01-15T11:24:34;-0.50;99.90
21184;DHT22;18176;49.502;11.754;2024-01-15T11:29:02;-0.50;99.90
21184;DHT22;18176;49.502;11.754;2024-01-15T11:33:34;-0.30;99.90
21184;DHT22;18176;49.502;11.754;2024-01-15T11:37:59;-0.50;99.90
21184;DHT22;18176;49.502;11.754;2024-01-15T11:42:20;-0.50;99.90
21184;DHT22;18176;49.502;11.754;2024-01-15T11:46:52;-0.50;99.90
21184;DHT22;18176;49.502;11.754;2024-01-15T11:51:18;-0.50;99.90
21184;DHT22;18176;49.502;11.754;2024-01-15T11:55:41;-0.50;99.90
21184;DHT22;18176;49.502;11.754;2024-01-15T12:00:12;-0.40;99.90
21184;DHT22;18176;49.502;11.754;2024-01-15T12:04:36;-0.30;99.90
21184;DHT22;18176;49.502;11.754;2024-01-15T12:09:06;-0.20;99.90
21184;DHT22;18176;49.502;11.754;2024-01-15T12:13:27;-0.20;99.90
21184;DHT22;18176;49.502;11.754;2024-01-15T12:17:48;-0.20;99.90
21184;DHT22;18176;49.502;11.754;2024-01-15T12:22:11;-0.40;99.90
21184;DHT22;18176;49.502;11.754;2024-01-15T12:26:33;-0.50;99.90
21184;DHT22;18176;49.502;11.754;2024-01-15T12:30:55;-0.50;99.90
21184;DHT22;18176;49.502;11.754;2024-01-15T12:35:18;-0.50;99.90
21184;DHT22;18176;49.502;11.754;2024-01-15T12:39:43;-0.50;99.90
21184;DHT22;18176;49.502;11.754;2024-01-15T12:44:04;-0.60;99.90
21184;DHT22;18176;49.502;11.754;2024-01-15T12:48:26;-0.50;99.90
21184;DHT22;18176;49.502;11.754;2024-01-15T12:52:49;-0.60;99.90
21184;DHT22;18176;49.502;11.754;2024-01-15T12:57:12;-0.60;99.90
21184;DHT22;18176;49.502;11.754;2024-01-15T13:01:33;-0.60;99.90
21184;DHT22;18176;49.502;11.754;2024-01-15T13:05:54;-0.70;99.90
21184;DHT22;18176;49.502;11.754;2024-01-15T13:10:15;-0.50;99.90
21184;DHT22;18176;49.502;11.754;2024-01-15T13:14:39;-0.60;99.90
21184;DHT22;18176;49.502;11.754;2024-01-15T13:19:00;-0.60;99.90
21184;DHT22;18176;49.502;11.754;2024-01-15T13:23:21;-0.60;99.90
21184;DHT22;18176;49.502;11.754;2024-01-15T13:27:42;-0.40;99.90
21184;DHT22;18176;49.502;11.754;2024-01-15T13:32:06;-0.40;99.90
21184;DHT22;18176;49.502;11.754;2024-01-15T13:36:27;-0.40;99.90
21184;DHT22;18176;49.502;11.754;2024-01-15T13:40:48;-0.40;99.90
21184;DHT22;18176;49.502;11.754;2024-01-15T13:45:10;-0.40;99.90
21184;DHT22;18176;49.502;11.754;2024-01-15T13:49:36;-0.40;99.90
21184;DHT22;18176;49.502;11.754;2024-01-15T13:53:57;-0.60;99.90
21184;DHT22;18176;49.502;11.754;2024-01-15T13:58:20;-0.60;99.90
21184;DHT22;18176;49.502;11.754;2024-01-15T14:02:43;-0.70;99.90
21184;DHT22;18176;49.502;11.754;2024-01-15T14:07:06;-0.80;99.90
21184;DHT22;18176;49.502;11.754;2024-01-15T14:11:27;-0.80;99.90
21184;DHT22;18176;49.502;11.754;2024-01-15T14:15:48;-0.80;99.90
21184;DHT22;18176;49.502;11.754;2024-01-15T14:20:09;-0.70;99.90
21184;DHT22;18176;49.502;11.754;2024-01-15T14:24:33;-0.70;99.90
21184;DHT22;18176;49.502;11.754;2024-01-15T14:28:54;-0.70;99.90
21184;DHT22;18176;49.502;11.754;2024-01-15T14:33:14;-0.70;99.90
21184;DHT22;18176;49.502;11.754;2024-01-15T14:37:35;-0.80;99.90
21184;DHT22;18176;49.502;11.754;2024-01-15T14:41:59;-0.80;99.90
21184;DHT22;18176;49.502;11.754;2024-01-15T14:46:19;-0.70;99.90
21184;DHT22;18176;49.502;11.754;2024-01-15T14:50:40;-0.80;99.90
21184;DHT22;18176;49.502;11.754;2024-01-15T14:55:01;-0.80;99.90
21184;DHT22;18176;49.502;11.754;2024-01-15T14:59:25;-0.80;99.90
21184;DHT22;18176;49.502;11.754;2024-01-15T15:03:47;-0.80;99.90
21184;DHT22;18176;49.502;11.754;2024-01-15T15:08:08;-0.80;99.90
21184;DHT22;18176;49.502;11.754;2024-01-15T15:12:30;-0.80;99.90
21184;DHT22;18176;49.502;11.754;2024-01-15T15:16:53;-0.80;99.90
21184;DHT22;18176;49.502;11.754;2024-01-15T15:21:14;-0.90;99.90
21184;DHT22;18176;49.502;11.754;2024-01-15T15:25:35;-0.90;99.90
21184;DHT22;18176;49.502;11.754;2024-01-15T15:29:56;-0.90;99.90
21184;DHT22;18176;49.502;11.754;2024-01-15T15:34:19;-0.90;99.90
21184;DHT22;18176;49.502;11.754;2024-01-15T15:38:40;-0.90;99.90
21184;DHT22;18176;49.502;11.754;2024-01-15T15:43:01;-1.00;99.90
21184;DHT22;18176;49.502;11.754;2024-01-15T15:47:21;-1.00;99.90
21184;DHT22;18176;49.502;11.754;2024-01-15T15:51:45;-0.90;99.90
21184;DHT22;18176;49.502;11.754;2024-01-15T15:56:06;-1.00;99.90
21184;DHT22;18176;49.502;11.754;2024-01-15T16:00:27;-1.10;99.90
21184;DHT22;18176;49.502;11.754;2024-01-15T16:04:48;-1.10;99.90
21184;DHT22;18176;49.502;11.754;2024-01-15T16:09:12;-1.00;99.90
21184;DHT22;18176;49.502;11.754;2024-01-15T16:13:34;-1.10;99.90
21184;DHT22;18176;49.502;11.754;2024-01-15T16:17:57;-1.10;99.90
21184;DHT22;18176;49.502;11.754;2024-01-15T16:22:39;-1.10;99.90
21184;DHT22;18176;49.502;11.754;2024-01-15T16:27:25;-1.10;99.90
21184;DHT22;18176;49.502;11.754;2024-01-15T16:31:47;-1.10;99.90
21184;DHT22;18176;49.502;11.754;2024-01-15T16:36:09;-1.10;99.90
21184;DHT22;18176;49.502;11.754;2024-01-15T16:40:31;-1.10;99.90
21184;DHT22;18176;49.502;11.754;2024-01-15T16:44:58;-1.10;99.90
21184;DHT22;18176;49.502;11.754;2024-01-15T16:49:20;-1.10;99.90
21184;DHT22;18176;49.502;11.754;2024-01-15T16:53:42;-1.10;99.90
21184;DHT22;18176;49.502;11.754;2024-01-15T16:58:04;-1.10;99.90
21184;DHT22;18176;49.502;11.754;2024-01-15T17:02:29;-1.10;99.90
21184;DHT22;18176;49.502;11.754;2024-01-15T17:06:52;-1.00;99.90
21184;DHT22;18176;49.502;11.754;2024-01-15T17:11:14;-1.00;99.90
21184;DHT22;18176;49.502;11.754;2024-01-15T17:15:37;-0.90;99.90
21184;DHT22;18176;49.502;11.754;2024-01-15T17:20:03;-1.00;99.90
21184;DHT22;18176;49.502;11.754;2024-01-15T17:24:27;-1.00;99.90
21184;DHT22;18176;49.502;11.754;2024-01-15T17:28:49;-1.00;99.90
21184;DHT22;18176;49.502;11.754;2024-01-15T17:33:13;-0.90;99.90
21184;DHT22;18176;49.502;11.754;2024-01-15T17:37:38;-0.90;99.90
21184;DHT22;18176;49.502;11.754;2024-01-15T17:42:01;-0.90;99.90
21184;DHT22;18176;49.502;11.754;2024-01-15T17:46:23;-1.00;99.90
21184;DHT22;18176;49.502;11.754;2024-01-15T17:50:47;-1.00;99.90
21184;DHT22;18176;49.502;11.754;2024-01-15T17:55:12;-1.00;99.90
21184;DHT22;18176;49.502;11.754;2024-01-15T17:59:33;-1.00;99.90
21184;DHT22;18176;49.502;11.754;2024-01-15T18:03:54;-1.00;99.90
21184;DHT22;18176;49.502;11.754;2024-01-15T18:08:16;-1.00;99.90
21184;DHT22;18176;49.502;11.754;2024-01-15T18:12:39;-1.00;99.90
21184;DHT22;18176;49.502;11.754;2024-01-15T18:17:00;-1.00;99.90
21184;DHT22;18176;49.502;11.754;2024-01-15T18:21:22;-0.90;99.90
21184;DHT22;18176;49.502;11.754;2024-01-15T18:25:43;-1.00;99.90
21184;DHT22;18176;49.502;11.754;2024-01-15T18:30:08;-0.90;99.90
21184;DHT22;18176;49.502;11.754;2024-01-15T18:34:31;-0.90;99.90
21184;DHT22;18176;49.502;11.754;2024-01-15T18:38:53;-0.80;99.90
21184;DHT22;18176;49.502;11.754;2024-01-15T18:43:16;-0.80;99.90
21184;DHT22;18176;49.502;11.754;2024-01-15T18:47:40;-0.90;99.90
21184;DHT22;18176;49.502;11.754;2024-01-15T18:52:03;-0.90;99.90
21184;DHT22;18176;49.502;11.754;2024-01-15T18:56:25;-0.80;99.90
21184;DHT22;18176;49.502;11.754;2024-01-15T19:00:46;-0.80;99.90
21184;DHT22;18176;49.502;11.754;2024-01-15T19:05:11;-0.80;99.90
21184;DHT22;18176;49.502;11.754;2024-01-15T19:09:32;-0.80;99.90
21184;DHT22;18176;49.502;11.754;2024-01-15T19:13:53;-0.90;99.90
21184;DHT22;18176;49.502;11.754;2024-01-15T19:18:14;-0.80;99.90
21184;DHT22;18176;49.502;11.754;2024-01-15T19:22:41;-0.80;99.90
21184;DHT22;18176;49.502;11.754;2024-01-15T19:27:02;-0.80;99.90
21184;DHT22;18176;49.502;11.754;2024-01-15T19:31:23;-0.80;99.90
21184;DHT22;18176;49.502;11.754;2024-01-15T19:35:47;-0.80;99.90
21184;DHT22;18176;49.502;11.754;2024-01-15T19:40:11;-0.80;99.90
21184;DHT22;18176;49.502;11.754;2024-01-15T19:44:32;-0.80;99.90
21184;DHT22;18176;49.502;11.754;2024-01-15T19:48:54;-0.80;99.90
21184;DHT22;18176;49.502;11.754;2024-01-15T19:53:16;-0.80;99.90
21184;DHT22;18176;49.502;11.754;2024-01-15T19:57:40;-0.90;99.90
21184;DHT22;18176;49.502;11.754;2024-01-15T20:02:01;-0.80;99.90
21184;DHT22;18176;49.502;11.754;2024-01-15T20:06:23;-0.80;99.90
21184;DHT22;18176;49.502;11.754;2024-01-15T20:10:45;-0.80;99.90
21184;DHT22;18176;49.502;11.754;2024-01-15T20:15:09;-0.80;99.90
21184;DHT22;18176;49.502;11.754;2024-01-15T20:19:32;-0.80;99.90
21184;DHT22;18176;49.502;11.754;2024-01-15T20:23:53;-0.80;99.90
21184;DHT22;18176;49.502;11.754;2024-01-15T20:28:20;-0.70;99.90
21184;DHT22;18176;49.502;11.754;2024-01-15T20:32:44;-0.80;99.90
21184;DHT22;18176;49.502;11.754;2024-01-15T20:37:05;-0.80;99.90
21184;DHT22;18176;49.502;11.754;2024-01-15T20:41:25;-0.80;99.90
21184;DHT22;18176;49.502;11.754;2024-01-15T20:45:46;-0.80;99.90
21184;DHT22;18176;49.502;11.754;2024-01-15T20:50:10;-0.90;99.90
21184;DHT22;18176;49.502;11.754;2024-01-15T20:54:31;-0.90;99.90
21184;DHT22;18176;49.502;11.754;2024-01-15T20:58:52;-0.80;99.90
21184;DHT22;18176;49.502;11.754;2024-01-15T21:03:15;-0.80;99.90
21184;DHT22;18176;49.502;11.754;2024-01-15T21:07:39;-0.80;99.90
21184;DHT22;18176;49.502;11.754;2024-01-15T21:12:03;-0.90;99.90
21184;DHT22;18176;49.502;11.754;2024-01-15T21:16:27;-0.90;99.90
21184;DHT22;18176;49.502;11.754;2024-01-15T21:20:48;-0.90;99.90
21184;DHT22;18176;49.502;11.754;2024-01-15T21:25:12;-0.90;99.90
21184;DHT22;18176;49.502;11.754;2024-01-15T21:29:33;-1.00;99.90
21184;DHT22;18176;49.502;11.754;2024-01-15T21:33:54;-1.00;99.90
21184;DHT22;18176;49.502;11.754;2024-01-15T21:38:17;-0.90;99.90
21184;DHT22;18176;49.502;11.754;2024-01-15T21:42:41;-0.90;99.90
21184;DHT22;18176;49.502;11.754;2024-01-15T21:47:01;-0.90;99.90
21184;DHT22;18176;49.502;11.754;2024-01-15T21:51:22;-0.90;99.90
21184;DHT22;18176;49.502;11.754;2024-01-15T21:55:43;-0.90;99.90
21184;DHT22;18176;49.502;11.754;2024-01-15T22:00:08;-1.00;99.90
21184;DHT22;18176;49.502;11.754;2024-01-15T22:04:31;-1.10;99.90
21184;DHT22;18176;49.502;11.754;2024-01-15T22:08:53;-1.00;99.90
21184;DHT22;18176;49.502;11.754;2024-01-15T22:13:14;-1.00;99.90
21184;DHT22;18176;49.502;11.754;2024-01-15T22:17:37;-1.00;99.90
21184;DHT22;18176;49.502;11.754;2024-01-15T22:21:58;-1.00;99.90
21184;DHT22;18176;49.502;11.754;2024-01-15T22:26:19;-1.00;99.90
21184;DHT22;18176;49.502;11.754;2024-01-15T22:30:40;-1.10;99.90
21184;DHT22;18176;49.502;11.754;2024-01-15T22:35:04;-1.10;99.90
21184;DHT22;18176;49.502;11.754;2024-01-15T22:39:26;-1.20;99.90
21184;DHT22;18176;49.502;11.754;2024-01-15T22:43:47;-1.20;99.90
21184;DHT22;18176;49.502;11.754;2024-01-15T22:48:08;-1.20;99.90
21184;DHT22;18176;49.502;11.754;2024-01-15T22:52:31;-1.10;99.90
21184;DHT22;18176;49.502;11.754;2024-01-15T22:56:52;-1.10;99.90
21184;DHT22;18176;49.502;11.754;2024-01-15T23:01:12;-1.00;99.90
21184;DHT22;18176;49.502;11.754;2024-01-15T23:05:33;-1.10;99.90
21184;DHT22;18176;49.502;11.754;2024-01-15T23:09:57;-1.10;99.90
21184;DHT22;18176;49.502;11.754;2024-01-15T23:14:17;-1.10;99.90
21184;DHT22;18176;49.502;11.754;2024-01-15T23:18:38;-1.10;99.90
21184;DHT22;18176;49.502;11.754;2024-01-15T23:22:59;-1.10;99.90
21184;DHT22;18176;49.502;11.754;2024-01-15T23:27:23;-1.10;99.90
21184;DHT22;18176;49.502;11.754;2024-01-15T23:31:44;-1.10;99.90
21184;DHT22;18176;49.502;11.754;2024-01-15T23:36:06;-1.10;99.90
21184;DHT22;18176;49.502;11.754;2024-01-15T23:40:27;-1.10;99.90
21184;DHT22;18176;49.502;11.754;2024-01-15T23:44:51;-1.10;99.90
21184;DHT22;18176;49.502;11.754;2024-01-15T23:49:11;-1.10;99.90
21184;DHT22;18176;49.502;11.754;2024-01-15T23:53:32;-1.10;99.90
21184;DHT22;18176;49.502;11.754;2024-01-15T23:57:53;-1.20;99.90
